sensor_id;sensor_type;location;lat;lon;timestamp;P1;durP1;ratioP1;P2;durP2;ratioP2
946;SDS011;460;48.734;9.152;2024-03-02T00:00:34;11.73;;;10.27;;
946;SDS011;460;48.734;9.152;2024-03-02T00:03:01;13.15;;;10.05;;
946;SDS011;460;48.734;9.152;2024-03-02T00:05:29;10.80;;;9.70;;
946;SDS011;460;48.734;9.152;2024-03-02T00:07:56;11.73;;;9.27;;
946;SDS011;460;48.734;9.152;2024-03-02T00:10:26;12.87;;;9.23;;
946;SDS011;460;48.734;9.152;2024-03-02T00:12:56;12.02;;;8.68;;
946;SDS011;460;48.734;9.152;2024-03-02T00:15:33;8.90;;;8.00;;
946;SDS011;460;48.734;9.152;2024-03-02T00:18:10;13.10;;;8.57;;
946;SDS011;460;48.734;9.152;2024-03-02T00:20:38;14.85;;;10.65;;
946;SDS011;460;48.734;9.152;2024-03-02T00:23:06;13.25;;;9.63;;
946;SDS011;460;48.734;9.152;2024-03-02T00:25:37;13.02;;;9.35;;
946;SDS011;460;48.734;9.152;2024-03-02T00:28:10;13.52;;;9.65;;
946;SDS011;460;48.734;9.152;2024-03-02T00:33:31;14.95;;;9.75;;
946;SDS011;460;48.734;9.152;2024-03-02T00:35:59;11.18;;;9.30;;
946;SDS011;460;48.734;9.152;2024-03-02T00:38:27;10.95;;;8.70;;
946;SDS011;460;48.734;9.152;2024-03-02T00:40:55;12.13;;;9.20;;
946;SDS011;460;48.734;9.152;2024-03-02T00:46:10;10.48;;;8.82;;
946;SDS011;460;48.734;9.152;2024-03-02T00:48:38;13.05;;;9.32;;
946;SDS011;460;48.734;9.152;2024-03-02T00:51:08;14.02;;;9.73;;
946;SDS011;460;48.734;9.152;2024-03-02T00:53:35;11.15;;;9.60;;
946;SDS011;460;48.734;9.152;2024-03-02T00:56:05;11.57;;;9.65;;
946;SDS011;460;48.734;9.152;2024-03-02T00:58:36;11.73;;;9.38;;
946;SDS011;460;48.734;9.152;2024-03-02T01:01:03;12.55;;;9.10;;
946;SDS011;460;48.734;9.152;2024-03-02T01:03:32;9.80;;;8.40;;
946;SDS011;460;48.734;9.152;2024-03-02T01:06:00;11.43;;;9.00;;
946;SDS011;460;48.734;9.152;2024-03-02T01:08:28;12.57;;;9.38;;
946;SDS011;460;48.734;9.152;2024-03-02T01:10:56;11.35;;;9.40;;
946;SDS011;460;48.734;9.152;2024-03-02T01:13:25;11.05;;;8.90;;
946;SDS011;460;48.734;9.152;2024-03-02T01:15:52;10.47;;;8.73;;
946;SDS011;460;48.734;9.152;2024-03-02T01:18:19;13.25;;;9.57;;
946;SDS011;460;48.734;9.152;2024-03-02T01:20:47;12.77;;;9.10;;
946;SDS011;460;48.734;9.152;2024-03-02T01:23:16;10.48;;;8.23;;
946;SDS011;460;48.734;9.152;2024-03-02T01:25:44;9.23;;;8.00;;
946;SDS011;460;48.734;9.152;2024-03-02T01:28:11;11.93;;;9.43;;
946;SDS011;460;48.734;9.152;2024-03-02T01:30:39;13.50;;;9.10;;
946;SDS011;460;48.734;9.152;2024-03-02T01:33:06;13.88;;;8.35;;
946;SDS011;460;48.734;9.152;2024-03-02T01:35:33;14.18;;;9.40;;
946;SDS011;460;48.734;9.152;2024-03-02T01:38:01;11.02;;;8.38;;
946;SDS011;460;48.734;9.152;2024-03-02T01:40:27;8.97;;;7.33;;
946;SDS011;460;48.734;9.152;2024-03-02T01:42:53;11.98;;;10.75;;
946;SDS011;460;48.734;9.152;2024-03-02T01:45:23;10.30;;;8.75;;
946;SDS011;460;48.734;9.152;2024-03-02T01:47:51;12.00;;;9.68;;
946;SDS011;460;48.734;9.152;2024-03-02T01:50:24;14.32;;;11.70;;
946;SDS011;460;48.734;9.152;2024-03-02T01:52:52;16.05;;;10.93;;
946;SDS011;460;48.734;9.152;2024-03-02T01:55:19;16.83;;;10.18;;
946;SDS011;460;48.734;9.152;2024-03-02T01:57:46;10.88;;;9.00;;
946;SDS011;460;48.734;9.152;2024-03-02T02:00:14;12.52;;;10.35;;
946;SDS011;460;48.734;9.152;2024-03-02T02:02:41;13.00;;;9.80;;
946;SDS011;460;48.734;9.152;2024-03-02T02:05:10;14.13;;;9.45;;
946;SDS011;460;48.734;9.152;2024-03-02T02:07:36;11.85;;;9.07;;
946;SDS011;460;48.734;9.152;2024-03-02T02:10:05;8.80;;;7.53;;
946;SDS011;460;48.734;9.152;2024-03-02T02:12:33;14.57;;;10.02;;
946;SDS011;460;48.734;9.152;2024-03-02T02:15:01;11.63;;;8.80;;
946;SDS011;460;48.734;9.152;2024-03-02T02:17:30;11.80;;;8.27;;
946;SDS011;460;48.734;9.152;2024-03-02T02:19:57;8.63;;;7.72;;
946;SDS011;460;48.734;9.152;2024-03-02T02:22:25;10.75;;;8.98;;
946;SDS011;460;48.734;9.152;2024-03-02T02:24:51;11.02;;;8.23;;
946;SDS011;460;48.734;9.152;2024-03-02T02:27:18;11.63;;;8.18;;
946;SDS011;460;48.734;9.152;2024-03-02T02:29:45;12.00;;;8.57;;
946;SDS011;460;48.734;9.152;2024-03-02T02:32:13;10.18;;;8.90;;
946;SDS011;460;48.734;9.152;2024-03-02T02:34:41;13.57;;;8.43;;
946;SDS011;460;48.734;9.152;2024-03-02T02:37:09;10.43;;;7.40;;
946;SDS011;460;48.734;9.152;2024-03-02T02:39:37;10.32;;;8.27;;
946;SDS011;460;48.734;9.152;2024-03-02T02:42:05;10.27;;;7.72;;
946;SDS011;460;48.734;9.152;2024-03-02T02:44:34;11.43;;;8.10;;
946;SDS011;460;48.734;9.152;2024-03-02T02:47:02;10.27;;;9.13;;
946;SDS011;460;48.734;9.152;2024-03-02T02:49:30;12.05;;;8.98;;
946;SDS011;460;48.734;9.152;2024-03-02T02:52:01;10.65;;;8.50;;
946;SDS011;460;48.734;9.152;2024-03-02T02:54:29;10.48;;;8.05;;
946;SDS011;460;48.734;9.152;2024-03-02T02:56:58;14.13;;;8.73;;
946;SDS011;460;48.734;9.152;2024-03-02T02:59:26;14.23;;;8.98;;
946;SDS011;460;48.734;9.152;2024-03-02T03:01:54;12.25;;;9.05;;
946;SDS011;460;48.734;9.152;2024-03-02T03:04:21;12.70;;;10.15;;
946;SDS011;460;48.734;9.152;2024-03-02T03:06:49;9.80;;;8.23;;
946;SDS011;460;48.734;9.152;2024-03-02T03:09:17;10.93;;;8.40;;
946;SDS011;460;48.734;9.152;2024-03-02T03:11:44;12.45;;;8.02;;
946;SDS011;460;48.734;9.152;2024-03-02T03:14:12;12.00;;;9.23;;
946;SDS011;460;48.734;9.152;2024-03-02T03:16:40;11.13;;;8.68;;
946;SDS011;460;48.734;9.152;2024-03-02T03:19:07;11.32;;;8.57;;
946;SDS011;460;48.734;9.152;2024-03-02T03:21:35;12.45;;;10.02;;
946;SDS011;460;48.734;9.152;2024-03-02T03:24:02;13.55;;;10.25;;
946;SDS011;460;48.734;9.152;2024-03-02T03:26:30;10.25;;;8.38;;
946;SDS011;460;48.734;9.152;2024-03-02T03:28:58;11.43;;;9.20;;
946;SDS011;460;48.734;9.152;2024-03-02T03:31:30;9.75;;;8.30;;
946;SDS011;460;48.734;9.152;2024-03-02T03:33:58;11.63;;;8.63;;
946;SDS011;460;48.734;9.152;2024-03-02T03:36:25;10.95;;;8.43;;
946;SDS011;460;48.734;9.152;2024-03-02T03:38:52;12.15;;;8.98;;
946;SDS011;460;48.734;9.152;2024-03-02T03:41:20;12.98;;;9.05;;
946;SDS011;460;48.734;9.152;2024-03-02T03:43:47;12.00;;;7.93;;
946;SDS011;460;48.734;9.152;2024-03-02T03:46:14;14.25;;;9.10;;
946;SDS011;460;48.734;9.152;2024-03-02T03:48:43;10.93;;;8.80;;
946;SDS011;460;48.734;9.152;2024-03-02T03:51:10;15.85;;;9.95;;
946;SDS011;460;48.734;9.152;2024-03-02T03:53:37;11.70;;;9.40;;
946;SDS011;460;48.734;9.152;2024-03-02T03:56:04;10.85;;;9.48;;
946;SDS011;460;48.734;9.152;2024-03-02T03:58:31;11.52;;;9.05;;
946;SDS011;460;48.734;9.152;2024-03-02T04:00:58;14.48;;;9.20;;
946;SDS011;460;48.734;9.152;2024-03-02T04:03:25;11.40;;;8.85;;
946;SDS011;460;48.734;9.152;2024-03-02T04:05:53;11.02;;;8.80;;
946;SDS011;460;48.734;9.152;2024-03-02T04:08:20;12.70;;;9.25;;
946;SDS011;460;48.734;9.152;2024-03-02T04:10:47;11.82;;;8.80;;
946;SDS011;460;48.734;9.152;2024-03-02T04:13:14;16.38;;;10.63;;
946;SDS011;460;48.734;9.152;2024-03-02T04:15:40;17.48;;;9.15;;
946;SDS011;460;48.734;9.152;2024-03-02T04:18:07;16.80;;;9.63;;
946;SDS011;460;48.734;9.152;2024-03-02T04:20:34;10.80;;;8.93;;
946;SDS011;460;48.734;9.152;2024-03-02T04:23:02;13.35;;;8.82;;
946;SDS011;460;48.734;9.152;2024-03-02T04:25:29;13.25;;;9.38;;
946;SDS011;460;48.734;9.152;2024-03-02T04:27:56;12.98;;;9.05;;
946;SDS011;460;48.734;9.152;2024-03-02T04:30:23;12.95;;;10.02;;
946;SDS011;460;48.734;9.152;2024-03-02T04:32:50;11.75;;;9.80;;
946;SDS011;460;48.734;9.152;2024-03-02T04:35:17;12.18;;;9.50;;
946;SDS011;460;48.734;9.152;2024-03-02T04:37:43;11.10;;;8.88;;
946;SDS011;460;48.734;9.152;2024-03-02T04:40:12;9.82;;;8.05;;
946;SDS011;460;48.734;9.152;2024-03-02T04:42:39;11.73;;;8.60;;
946;SDS011;460;48.734;9.152;2024-03-02T04:45:07;10.07;;;9.02;;
946;SDS011;460;48.734;9.152;2024-03-02T04:47:34;12.98;;;8.95;;
946;SDS011;460;48.734;9.152;2024-03-02T04:50:02;10.38;;;8.18;;
946;SDS011;460;48.734;9.152;2024-03-02T04:52:30;11.77;;;9.65;;
946;SDS011;460;48.734;9.152;2024-03-02T04:54:57;17.52;;;9.60;;
946;SDS011;460;48.734;9.152;2024-03-02T04:57:50;14.02;;;9.80;;
946;SDS011;460;48.734;9.152;2024-03-02T05:00:19;13.25;;;10.57;;
946;SDS011;460;48.734;9.152;2024-03-02T05:02:46;13.07;;;9.63;;
946;SDS011;460;48.734;9.152;2024-03-02T05:05:13;11.27;;;9.50;;
946;SDS011;460;48.734;9.152;2024-03-02T05:07:40;11.18;;;8.82;;
946;SDS011;460;48.734;9.152;2024-03-02T05:10:07;12.80;;;9.30;;
946;SDS011;460;48.734;9.152;2024-03-02T05:12:34;12.85;;;9.70;;
946;SDS011;460;48.734;9.152;2024-03-02T05:15:23;11.23;;;8.85;;
946;SDS011;460;48.734;9.152;2024-03-02T05:17:49;15.60;;;10.10;;
946;SDS011;460;48.734;9.152;2024-03-02T05:20:16;14.70;;;9.20;;
946;SDS011;460;48.734;9.152;2024-03-02T05:22:43;15.65;;;11.05;;
946;SDS011;460;48.734;9.152;2024-03-02T05:25:10;10.18;;;8.95;;
946;SDS011;460;48.734;9.152;2024-03-02T05:27:37;16.38;;;10.45;;
946;SDS011;460;48.734;9.152;2024-03-02T05:30:04;16.17;;;10.88;;
946;SDS011;460;48.734;9.152;2024-03-02T05:32:33;16.17;;;11.35;;
946;SDS011;460;48.734;9.152;2024-03-02T05:35:00;15.52;;;11.70;;
946;SDS011;460;48.734;9.152;2024-03-02T05:37:28;15.30;;;11.15;;
946;SDS011;460;48.734;9.152;2024-03-02T05:39:54;18.08;;;12.75;;
946;SDS011;460;48.734;9.152;2024-03-02T05:42:21;14.27;;;11.00;;
946;SDS011;460;48.734;9.152;2024-03-02T05:44:48;16.58;;;11.48;;
946;SDS011;460;48.734;9.152;2024-03-02T05:47:15;13.40;;;10.88;;
946;SDS011;460;48.734;9.152;2024-03-02T05:49:43;17.25;;;11.13;;
946;SDS011;460;48.734;9.152;2024-03-02T05:52:10;15.48;;;9.88;;
946;SDS011;460;48.734;9.152;2024-03-02T05:54:37;14.07;;;10.25;;
946;SDS011;460;48.734;9.152;2024-03-02T05:57:04;15.98;;;11.55;;
946;SDS011;460;48.734;9.152;2024-03-02T05:59:51;13.38;;;11.52;;
946;SDS011;460;48.734;9.152;2024-03-02T06:02:18;14.50;;;10.45;;
946;SDS011;460;48.734;9.152;2024-03-02T06:04:47;13.85;;;11.25;;
946;SDS011;460;48.734;9.152;2024-03-02T06:07:13;14.93;;;11.02;;
946;SDS011;460;48.734;9.152;2024-03-02T06:09:40;17.02;;;11.25;;
946;SDS011;460;48.734;9.152;2024-03-02T06:12:07;14.35;;;10.02;;
946;SDS011;460;48.734;9.152;2024-03-02T06:14:34;16.20;;;10.02;;
946;SDS011;460;48.734;9.152;2024-03-02T06:17:00;16.30;;;10.40;;
946;SDS011;460;48.734;9.152;2024-03-02T06:19:27;13.25;;;10.48;;
946;SDS011;460;48.734;9.152;2024-03-02T06:21:55;16.48;;;11.45;;
946;SDS011;460;48.734;9.152;2024-03-02T06:24:22;14.75;;;11.35;;
946;SDS011;460;48.734;9.152;2024-03-02T06:26:48;16.00;;;10.45;;
946;SDS011;460;48.734;9.152;2024-03-02T06:29:15;15.80;;;11.60;;
946;SDS011;460;48.734;9.152;2024-03-02T06:31:42;14.48;;;11.85;;
946;SDS011;460;48.734;9.152;2024-03-02T06:34:09;13.90;;;11.07;;
946;SDS011;460;48.734;9.152;2024-03-02T06:36:36;20.05;;;11.43;;
946;SDS011;460;48.734;9.152;2024-03-02T06:39:06;14.35;;;11.00;;
946;SDS011;460;48.734;9.152;2024-03-02T06:41:33;18.40;;;12.05;;
946;SDS011;460;48.734;9.152;2024-03-02T06:44:00;15.73;;;11.98;;
946;SDS011;460;48.734;9.152;2024-03-02T06:46:27;15.88;;;12.25;;
946;SDS011;460;48.734;9.152;2024-03-02T06:48:54;15.48;;;12.25;;
946;SDS011;460;48.734;9.152;2024-03-02T06:51:21;20.95;;;14.57;;
946;SDS011;460;48.734;9.152;2024-03-02T06:53:47;15.43;;;12.55;;
946;SDS011;460;48.734;9.152;2024-03-02T06:56:15;20.00;;;11.57;;
946;SDS011;460;48.734;9.152;2024-03-02T06:58:42;18.33;;;12.02;;
946;SDS011;460;48.734;9.152;2024-03-02T07:01:09;21.35;;;13.65;;
946;SDS011;460;48.734;9.152;2024-03-02T07:03:36;18.73;;;11.98;;
946;SDS011;460;48.734;9.152;2024-03-02T07:06:04;18.55;;;10.88;;
946;SDS011;460;48.734;9.152;2024-03-02T07:08:31;15.75;;;10.38;;
946;SDS011;460;48.734;9.152;2024-03-02T07:10:58;15.63;;;10.88;;
946;SDS011;460;48.734;9.152;2024-03-02T07:13:34;13.25;;;10.07;;
946;SDS011;460;48.734;9.152;2024-03-02T07:16:01;12.63;;;9.85;;
946;SDS011;460;48.734;9.152;2024-03-02T07:18:46;14.27;;;10.13;;
946;SDS011;460;48.734;9.152;2024-03-02T07:21:16;16.08;;;11.10;;
946;SDS011;460;48.734;9.152;2024-03-02T07:23:43;12.27;;;8.57;;
946;SDS011;460;48.734;9.152;2024-03-02T07:26:10;14.93;;;10.90;;
946;SDS011;460;48.734;9.152;2024-03-02T07:28:38;16.15;;;9.45;;
946;SDS011;460;48.734;9.152;2024-03-02T07:31:05;12.98;;;9.23;;
946;SDS011;460;48.734;9.152;2024-03-02T07:33:32;10.98;;;9.77;;
946;SDS011;460;48.734;9.152;2024-03-02T07:35:59;14.15;;;8.20;;
946;SDS011;460;48.734;9.152;2024-03-02T07:38:27;9.68;;;7.93;;
946;SDS011;460;48.734;9.152;2024-03-02T07:40:54;10.52;;;8.43;;
946;SDS011;460;48.734;9.152;2024-03-02T07:43:21;9.63;;;7.72;;
946;SDS011;460;48.734;9.152;2024-03-02T07:45:49;9.80;;;7.85;;
946;SDS011;460;48.734;9.152;2024-03-02T07:48:16;14.95;;;8.63;;
946;SDS011;460;48.734;9.152;2024-03-02T07:50:43;10.00;;;6.93;;
946;SDS011;460;48.734;9.152;2024-03-02T07:53:10;9.73;;;7.38;;
946;SDS011;460;48.734;9.152;2024-03-02T07:55:36;10.65;;;7.97;;
946;SDS011;460;48.734;9.152;2024-03-02T07:58:03;12.23;;;8.65;;
946;SDS011;460;48.734;9.152;2024-03-02T08:00:30;10.57;;;7.50;;
946;SDS011;460;48.734;9.152;2024-03-02T08:02:58;13.63;;;8.90;;
946;SDS011;460;48.734;9.152;2024-03-02T08:05:26;8.07;;;6.57;;
946;SDS011;460;48.734;9.152;2024-03-02T08:07:53;11.77;;;7.88;;
946;SDS011;460;48.734;9.152;2024-03-02T08:10:20;11.65;;;7.57;;
946;SDS011;460;48.734;9.152;2024-03-02T08:12:47;9.50;;;7.07;;
946;SDS011;460;48.734;9.152;2024-03-02T08:15:13;10.52;;;8.00;;
946;SDS011;460;48.734;9.152;2024-03-02T08:17:40;11.37;;;8.23;;
946;SDS011;460;48.734;9.152;2024-03-02T08:20:12;11.80;;;8.32;;
946;SDS011;460;48.734;9.152;2024-03-02T08:22:39;9.73;;;7.97;;
946;SDS011;460;48.734;9.152;2024-03-02T08:25:06;10.02;;;8.10;;
946;SDS011;460;48.734;9.152;2024-03-02T08:27:34;10.90;;;8.47;;
946;SDS011;460;48.734;9.152;2024-03-02T08:30:01;11.90;;;8.40;;
946;SDS011;460;48.734;9.152;2024-03-02T08:32:31;13.00;;;8.50;;
946;SDS011;460;48.734;9.152;2024-03-02T08:34:58;10.07;;;8.00;;
946;SDS011;460;48.734;9.152;2024-03-02T08:37:26;8.67;;;7.70;;
946;SDS011;460;48.734;9.152;2024-03-02T08:39:53;13.97;;;8.90;;
946;SDS011;460;48.734;9.152;2024-03-02T08:42:20;11.10;;;9.10;;
946;SDS011;460;48.734;9.152;2024-03-02T08:44:47;11.63;;;8.00;;
946;SDS011;460;48.734;9.152;2024-03-02T08:47:14;8.63;;;6.27;;
946;SDS011;460;48.734;9.152;2024-03-02T08:49:41;9.33;;;6.47;;
946;SDS011;460;48.734;9.152;2024-03-02T08:52:08;10.60;;;7.67;;
946;SDS011;460;48.734;9.152;2024-03-02T08:54:36;10.10;;;7.93;;
946;SDS011;460;48.734;9.152;2024-03-02T08:57:03;10.40;;;8.33;;
946;SDS011;460;48.734;9.152;2024-03-02T08:59:31;8.77;;;7.63;;
946;SDS011;460;48.734;9.152;2024-03-02T09:01:58;9.00;;;7.27;;
946;SDS011;460;48.734;9.152;2024-03-02T09:04:25;9.00;;;6.80;;
946;SDS011;460;48.734;9.152;2024-03-02T09:06:52;8.10;;;6.97;;
946;SDS011;460;48.734;9.152;2024-03-02T09:09:19;8.60;;;6.90;;
946;SDS011;460;48.734;9.152;2024-03-02T09:11:50;12.03;;;7.37;;
946;SDS011;460;48.734;9.152;2024-03-02T09:14:20;6.80;;;6.13;;
946;SDS011;460;48.734;9.152;2024-03-02T09:16:47;9.47;;;7.43;;
946;SDS011;460;48.734;9.152;2024-03-02T09:19:13;7.80;;;7.00;;
946;SDS011;460;48.734;9.152;2024-03-02T09:21:41;7.83;;;5.87;;
946;SDS011;460;48.734;9.152;2024-03-02T09:24:09;7.03;;;5.23;;
946;SDS011;460;48.734;9.152;2024-03-02T09:26:35;8.20;;;5.47;;
946;SDS011;460;48.734;9.152;2024-03-02T09:29:03;9.93;;;5.57;;
946;SDS011;460;48.734;9.152;2024-03-02T09:31:30;5.13;;;4.70;;
946;SDS011;460;48.734;9.152;2024-03-02T09:33:57;5.73;;;5.13;;
946;SDS011;460;48.734;9.152;2024-03-02T09:36:24;8.50;;;4.43;;
946;SDS011;460;48.734;9.152;2024-03-02T09:38:51;6.03;;;4.83;;
946;SDS011;460;48.734;9.152;2024-03-02T09:41:17;5.67;;;5.13;;
946;SDS011;460;48.734;9.152;2024-03-02T09:43:45;5.40;;;4.07;;
946;SDS011;460;48.734;9.152;2024-03-02T09:46:14;4.40;;;4.00;;
946;SDS011;460;48.734;9.152;2024-03-02T09:48:48;5.30;;;4.70;;
946;SDS011;460;48.734;9.152;2024-03-02T09:51:14;5.13;;;4.30;;
946;SDS011;460;48.734;9.152;2024-03-02T09:53:44;4.70;;;4.00;;
946;SDS011;460;48.734;9.152;2024-03-02T09:56:13;4.20;;;3.70;;
946;SDS011;460;48.734;9.152;2024-03-02T09:58:40;6.70;;;4.20;;
946;SDS011;460;48.734;9.152;2024-03-02T10:01:13;6.67;;;4.70;;
946;SDS011;460;48.734;9.152;2024-03-02T10:03:40;5.40;;;4.90;;
946;SDS011;460;48.734;9.152;2024-03-02T10:06:19;4.73;;;4.10;;
946;SDS011;460;48.734;9.152;2024-03-02T10:08:47;5.50;;;4.40;;
946;SDS011;460;48.734;9.152;2024-03-02T10:11:25;5.70;;;5.13;;
946;SDS011;460;48.734;9.152;2024-03-02T10:14:06;7.77;;;4.80;;
946;SDS011;460;48.734;9.152;2024-03-02T10:16:36;5.20;;;4.40;;
946;SDS011;460;48.734;9.152;2024-03-02T10:21:46;4.70;;;4.20;;
946;SDS011;460;48.734;9.152;2024-03-02T10:24:14;5.43;;;4.37;;
946;SDS011;460;48.734;9.152;2024-03-02T10:26:41;6.27;;;4.80;;
946;SDS011;460;48.734;9.152;2024-03-02T10:29:08;4.50;;;4.10;;
946;SDS011;460;48.734;9.152;2024-03-02T10:31:37;5.00;;;4.37;;
946;SDS011;460;48.734;9.152;2024-03-02T10:34:04;4.23;;;3.73;;
946;SDS011;460;48.734;9.152;2024-03-02T10:36:32;5.53;;;3.63;;
946;SDS011;460;48.734;9.152;2024-03-02T10:39:01;4.50;;;3.80;;
946;SDS011;460;48.734;9.152;2024-03-02T10:41:29;3.80;;;3.50;;
946;SDS011;460;48.734;9.152;2024-03-02T10:43:59;5.87;;;3.60;;
946;SDS011;460;48.734;9.152;2024-03-02T10:46:29;4.40;;;3.70;;
946;SDS011;460;48.734;9.152;2024-03-02T10:48:58;5.30;;;4.33;;
946;SDS011;460;48.734;9.152;2024-03-02T10:51:25;3.60;;;3.30;;
946;SDS011;460;48.734;9.152;2024-03-02T10:53:54;5.50;;;3.40;;
946;SDS011;460;48.734;9.152;2024-03-02T10:56:21;5.57;;;3.10;;
946;SDS011;460;48.734;9.152;2024-03-02T10:58:53;2.90;;;2.70;;
946;SDS011;460;48.734;9.152;2024-03-02T11:01:28;4.23;;;3.60;;
946;SDS011;460;48.734;9.152;2024-03-02T11:03:57;5.00;;;4.27;;
946;SDS011;460;48.734;9.152;2024-03-02T11:06:26;3.43;;;3.13;;
946;SDS011;460;48.734;9.152;2024-03-02T11:08:57;4.40;;;3.93;;
946;SDS011;460;48.734;9.152;2024-03-02T11:11:29;5.63;;;4.63;;
946;SDS011;460;48.734;9.152;2024-03-02T11:14:00;7.53;;;3.73;;
946;SDS011;460;48.734;9.152;2024-03-02T11:16:33;4.07;;;3.47;;
946;SDS011;460;48.734;9.152;2024-03-02T11:19:03;3.30;;;3.00;;
946;SDS011;460;48.734;9.152;2024-03-02T11:21:31;3.07;;;2.80;;
946;SDS011;460;48.734;9.152;2024-03-02T11:23:59;3.87;;;3.47;;
946;SDS011;460;48.734;9.152;2024-03-02T11:26:27;3.43;;;3.13;;
946;SDS011;460;48.734;9.152;2024-03-02T11:28:54;3.27;;;2.43;;
946;SDS011;460;48.734;9.152;2024-03-02T11:31:28;2.77;;;2.50;;
946;SDS011;460;48.734;9.152;2024-03-02T11:34:30;2.33;;;2.13;;
946;SDS011;460;48.734;9.152;2024-03-02T11:36:57;2.27;;;2.07;;
946;SDS011;460;48.734;9.152;2024-03-02T11:39:24;2.60;;;2.00;;
946;SDS011;460;48.734;9.152;2024-03-02T11:41:51;1.87;;;1.33;;
946;SDS011;460;48.734;9.152;2024-03-02T11:44:18;2.00;;;1.63;;
946;SDS011;460;48.734;9.152;2024-03-02T11:46:45;1.10;;;1.00;;
946;SDS011;460;48.734;9.152;2024-03-02T11:49:20;1.57;;;1.37;;
946;SDS011;460;48.734;9.152;2024-03-02T11:52:02;1.20;;;1.10;;
946;SDS011;460;48.734;9.152;2024-03-02T11:54:40;1.10;;;1.00;;
946;SDS011;460;48.734;9.152;2024-03-02T11:57:11;1.33;;;1.23;;
946;SDS011;460;48.734;9.152;2024-03-02T11:59:39;1.23;;;1.13;;
946;SDS011;460;48.734;9.152;2024-03-02T12:02:05;2.10;;;1.60;;
946;SDS011;460;48.734;9.152;2024-03-02T12:04:34;1.43;;;1.10;;
946;SDS011;460;48.734;9.152;2024-03-02T12:07:02;2.20;;;1.80;;
946;SDS011;460;48.734;9.152;2024-03-02T12:09:30;1.90;;;1.80;;
946;SDS011;460;48.734;9.152;2024-03-02T12:12:03;2.60;;;1.80;;
946;SDS011;460;48.734;9.152;2024-03-02T12:14:31;3.20;;;2.13;;
946;SDS011;460;48.734;9.152;2024-03-02T12:17:01;1.47;;;1.37;;
946;SDS011;460;48.734;9.152;2024-03-02T12:19:29;12.47;;;2.17;;
946;SDS011;460;48.734;9.152;2024-03-02T12:21:58;2.00;;;1.80;;
946;SDS011;460;48.734;9.152;2024-03-02T12:24:26;1.80;;;1.57;;
946;SDS011;460;48.734;9.152;2024-03-02T12:26:54;1.67;;;1.50;;
946;SDS011;460;48.734;9.152;2024-03-02T12:29:21;1.83;;;1.67;;
946;SDS011;460;48.734;9.152;2024-03-02T12:31:49;1.40;;;1.30;;
946;SDS011;460;48.734;9.152;2024-03-02T12:34:17;1.70;;;1.60;;
946;SDS011;460;48.734;9.152;2024-03-02T12:36:45;3.50;;;1.40;;
946;SDS011;460;48.734;9.152;2024-03-02T12:39:16;2.20;;;1.67;;
946;SDS011;460;48.734;9.152;2024-03-02T12:41:43;1.60;;;1.43;;
946;SDS011;460;48.734;9.152;2024-03-02T12:44:10;2.83;;;1.90;;
946;SDS011;460;48.734;9.152;2024-03-02T12:46:37;1.80;;;1.70;;
946;SDS011;460;48.734;9.152;2024-03-02T12:49:05;1.67;;;1.30;;
946;SDS011;460;48.734;9.152;2024-03-02T12:51:34;1.80;;;1.67;;
946;SDS011;460;48.734;9.152;2024-03-02T12:54:01;1.90;;;1.70;;
946;SDS011;460;48.734;9.152;2024-03-02T12:56:31;2.40;;;1.70;;
946;SDS011;460;48.734;9.152;2024-03-02T12:58:59;2.00;;;1.80;;
946;SDS011;460;48.734;9.152;2024-03-02T13:01:25;2.13;;;1.93;;
946;SDS011;460;48.734;9.152;2024-03-02T13:03:52;8.83;;;1.97;;
946;SDS011;460;48.734;9.152;2024-03-02T13:06:21;2.40;;;2.20;;
946;SDS011;460;48.734;9.152;2024-03-02T13:08:48;1.63;;;1.30;;
946;SDS011;460;48.734;9.152;2024-03-02T13:11:16;1.97;;;1.83;;
946;SDS011;460;48.734;9.152;2024-03-02T13:13:44;2.33;;;2.00;;
946;SDS011;460;48.734;9.152;2024-03-02T13:16:11;2.07;;;1.83;;
946;SDS011;460;48.734;9.152;2024-03-02T13:18:38;1.90;;;1.77;;
946;SDS011;460;48.734;9.152;2024-03-02T13:21:06;1.93;;;1.73;;
946;SDS011;460;48.734;9.152;2024-03-02T13:23:33;1.70;;;1.60;;
946;SDS011;460;48.734;9.152;2024-03-02T13:26:02;2.67;;;1.90;;
946;SDS011;460;48.734;9.152;2024-03-02T13:28:29;1.40;;;1.30;;
946;SDS011;460;48.734;9.152;2024-03-02T13:30:57;2.33;;;2.13;;
946;SDS011;460;48.734;9.152;2024-03-02T13:33:24;2.03;;;1.53;;
946;SDS011;460;48.734;9.152;2024-03-02T13:35:51;3.00;;;1.67;;
946;SDS011;460;48.734;9.152;2024-03-02T13:38:18;1.43;;;1.33;;
946;SDS011;460;48.734;9.152;2024-03-02T13:40:46;1.60;;;1.50;;
946;SDS011;460;48.734;9.152;2024-03-02T13:43:16;1.40;;;1.30;;
946;SDS011;460;48.734;9.152;2024-03-02T13:45:43;2.07;;;1.33;;
946;SDS011;460;48.734;9.152;2024-03-02T13:48:12;1.40;;;1.30;;
946;SDS011;460;48.734;9.152;2024-03-02T13:50:39;2.30;;;2.10;;
946;SDS011;460;48.734;9.152;2024-03-02T13:53:06;1.50;;;1.30;;
946;SDS011;460;48.734;9.152;2024-03-02T13:55:34;1.40;;;1.30;;
946;SDS011;460;48.734;9.152;2024-03-02T13:58:00;1.43;;;1.20;;
946;SDS011;460;48.734;9.152;2024-03-02T14:00:27;3.47;;;1.87;;
946;SDS011;460;48.734;9.152;2024-03-02T14:02:54;1.70;;;1.60;;
946;SDS011;460;48.734;9.152;2024-03-02T14:05:22;1.50;;;1.40;;
946;SDS011;460;48.734;9.152;2024-03-02T14:07:49;5.00;;;1.80;;
946;SDS011;460;48.734;9.152;2024-03-02T14:10:16;1.37;;;1.27;;
946;SDS011;460;48.734;9.152;2024-03-02T14:12:47;2.77;;;2.07;;
946;SDS011;460;48.734;9.152;2024-03-02T14:15:14;2.53;;;2.10;;
946;SDS011;460;48.734;9.152;2024-03-02T14:17:40;3.33;;;1.80;;
946;SDS011;460;48.734;9.152;2024-03-02T14:20:08;1.70;;;1.60;;
946;SDS011;460;48.734;9.152;2024-03-02T14:22:38;1.47;;;1.27;;
946;SDS011;460;48.734;9.152;2024-03-02T14:25:05;2.13;;;1.80;;
946;SDS011;460;48.734;9.152;2024-03-02T14:27:34;1.67;;;1.57;;
946;SDS011;460;48.734;9.152;2024-03-02T14:30:01;1.70;;;1.43;;
946;SDS011;460;48.734;9.152;2024-03-02T14:32:28;1.50;;;1.40;;
946;SDS011;460;48.734;9.152;2024-03-02T14:34:55;1.97;;;1.87;;
946;SDS011;460;48.734;9.152;2024-03-02T14:37:22;2.03;;;1.63;;
946;SDS011;460;48.734;9.152;2024-03-02T14:39:50;1.87;;;1.77;;
946;SDS011;460;48.734;9.152;2024-03-02T14:42:17;1.77;;;1.53;;
946;SDS011;460;48.734;9.152;2024-03-02T14:44:44;1.20;;;1.10;;
946;SDS011;460;48.734;9.152;2024-03-02T14:47:10;7.90;;;1.30;;
946;SDS011;460;48.734;9.152;2024-03-02T14:49:37;3.73;;;2.73;;
946;SDS011;460;48.734;9.152;2024-03-02T14:52:05;2.17;;;2.00;;
946;SDS011;460;48.734;9.152;2024-03-02T14:54:32;1.73;;;1.63;;
946;SDS011;460;48.734;9.152;2024-03-02T14:57:01;1.63;;;1.53;;
946;SDS011;460;48.734;9.152;2024-03-02T14:59:28;1.40;;;1.27;;
946;SDS011;460;48.734;9.152;2024-03-02T15:01:55;1.17;;;1.07;;
946;SDS011;460;48.734;9.152;2024-03-02T15:04:23;1.13;;;1.03;;
946;SDS011;460;48.734;9.152;2024-03-02T15:06:50;1.40;;;1.17;;
946;SDS011;460;48.734;9.152;2024-03-02T15:09:16;1.20;;;1.10;;
946;SDS011;460;48.734;9.152;2024-03-02T15:11:44;1.47;;;1.37;;
946;SDS011;460;48.734;9.152;2024-03-02T15:14:13;1.63;;;1.10;;
946;SDS011;460;48.734;9.152;2024-03-02T15:16:40;1.67;;;1.10;;
946;SDS011;460;48.734;9.152;2024-03-02T15:19:08;1.73;;;1.63;;
946;SDS011;460;48.734;9.152;2024-03-02T15:21:35;1.47;;;1.37;;
946;SDS011;460;48.734;9.152;2024-03-02T15:24:01;1.67;;;1.03;;
946;SDS011;460;48.734;9.152;2024-03-02T15:26:29;1.33;;;1.17;;
946;SDS011;460;48.734;9.152;2024-03-02T15:28:55;1.97;;;1.33;;
946;SDS011;460;48.734;9.152;2024-03-02T15:31:25;5.80;;;1.57;;
946;SDS011;460;48.734;9.152;2024-03-02T15:33:52;2.07;;;1.27;;
946;SDS011;460;48.734;9.152;2024-03-02T15:36:20;1.63;;;1.50;;
946;SDS011;460;48.734;9.152;2024-03-02T15:38:48;1.50;;;1.40;;
946;SDS011;460;48.734;9.152;2024-03-02T15:41:15;1.33;;;1.20;;
946;SDS011;460;48.734;9.152;2024-03-02T15:43:42;0.90;;;0.90;;
946;SDS011;460;48.734;9.152;2024-03-02T15:46:09;1.30;;;1.20;;
946;SDS011;460;48.734;9.152;2024-03-02T15:48:37;1.03;;;1.03;;